EW2345 Weather Reports


time (UTC)temp
C
wind
direction
speed
KPH
gust
KPH
rain 1hr
cm
rain 24hr
cm
rain mn
cm
humidity
%
barometer
mb
20190425062414 5 231 12.9 19.3 0.20 5.94 0.97 92 1006.5
20190425061916 5 219 9.7 19.3 0.20 5.94 0.97 92 1006.4
20190425061414 5 230 20.9 32.2 0.20 5.94 0.97 92 1006.3
20190425060913 5 244 22.5 41.8 0.15 5.92 0.91 93 1006.6
20190425060414 5 331 3.2 9.7 0.08 5.84 0.84 92 1005.8
20190425055914 5 314 4.8 11.3 0.05 5.82 0.81 92 1005.9
20190425055414 5 239 11.3 16.1 0.05 5.79 0.79 92 1005.7
20190425054913 5 240 9.7 19.3 0.05 5.79 0.79 92 1005.8
20190425054413 5 230 14.5 24.1 0.03 5.79 0.79 92 1005.8
20190425053914 5 219 19.3 29.0 0.03 5.79 0.79 92 1005.5
20190425053414 5 222 24.1 32.2 0.03 5.79 0.79 92 1005.5
20190425052914 5 214 20.9 32.2 0.03 5.79 0.79 92 1005.4
20190425052417 5 204 16.1 29.0 0.05 5.77 0.76 92 1005.2
20190425051914 5 213 20.9 32.2 0.13 5.79 0.76 92 1005.2
20190425051414 5 219 25.7 33.8 0.15 5.79 0.76 92 1005.1
20190425050913 5 215 24.1 35.4 0.15 5.79 0.76 92 1005.1
20190425050414 5 228 29.0 38.6 0.15 5.79 0.76 92 1005.0
20190425045914 5 230 22.5 38.6 0.15 5.79 0.76 92 1005.0
20190425045414 5 228 22.5 38.6 0.15 5.79 0.76 92 1005.0
20190425044913 5 235 33.8 45.1 0.15 5.79 0.76 92 1005.0
20190425044414 5 234 27.4 41.8 0.15 5.79 0.76 92 1004.9
20190425043914 5 238 35.4 46.7 0.15 5.79 0.76 92 1004.8
20190425043414 5 218 25.7 38.6 0.15 5.79 0.76 92 1004.8
20190425042914 5 217 19.3 35.4 0.15 5.79 0.76 92 1004.9
20190425042416 5 229 27.4 41.8 0.10 5.77 0.71 92 1005.0
20190425041914 5 207 33.8 48.3 0.05 5.69 0.66 92 1004.9
20190425041413 5 208 24.1 40.2 0.03 5.69 0.61 92 1004.7
20190425040914 5 211 33.8 48.3 0.03 5.69 0.61 92 1004.5
20190425040413 5 227 22.5 37.0 0.05 5.71 0.61 92 1004.7
20190425035913 5 230 22.5 41.8 0.05 5.71 0.61 92 1004.6
20190425035413 5 225 22.5 40.2 0.05 5.74 0.61 92 1004.7
20190425034913 5 228 22.5 37.0 0.10 5.77 0.61 92 1004.5
20190425034413 5 230 27.4 45.1 0.15 5.77 0.61 92 1004.7
20190425033913 5 238 24.1 45.1 0.18 5.77 0.61 92 1004.7
20190425033413 5 230 27.4 41.8 0.20 5.79 0.61 92 1004.6
20190425032915 5 227 29.0 38.6 0.20 5.79 0.61 92 1004.6
20190425032413 5 230 27.4 45.1 0.20 5.79 0.61 92 1004.5
20190425031913 5 218 37.0 56.3 0.20 5.79 0.61 92 1004.4
20190425031413 5 224 38.6 56.3 0.18 5.79 0.61 92 1004.3
20190425030913 5 225 33.8 56.3 0.18 5.79 0.61 92 1004.3
20190425030417 6 224 33.8 46.7 0.18 5.79 0.61 92 1004.2
20190425025913 6 226 25.7 46.7 0.15 5.79 0.58 92 1004.3
20190425025413 6 220 30.6 46.7 0.15 5.79 0.58 92 1004.2
20190425024913 6 232 30.6 48.3 0.13 5.77 0.53 91 1004.2
20190425024413 6 213 41.8 62.8 0.08 5.71 0.51 91 1003.9
20190425023914 6 233 29.0 41.8 0.05 5.69 0.46 92 1003.9
20190425023414 6 214 33.8 48.3 0.03 5.69 0.43 92 1003.6
20190425022914 6 227 37.0 48.3 0.00 5.66 0.43 92 1003.6
20190425022413 6 213 40.2 56.3 0.00 5.69 0.43 92 1003.6
20190425021912 5 229 33.8 51.5 0.05 5.69 0.43 93 1003.5
20190425021417 5 207 37.0 41.8 0.08 5.69 0.43 93 1003.4
20190425020919 5 222 32.2 46.7 0.13 5.71 0.43 93 1003.5
20190425020413 5 226 32.2 41.8 0.15 5.74 0.43 93 1003.6
20190425015913 5 224 32.2 48.3 0.15 5.74 0.43 93 1003.5
20190425015413 5 223 45.1 61.2 0.15 5.77 0.43 93 1003.4
20190425014913 5 221 38.6 56.3 0.15 5.77 0.43 93 1003.4
20190425014413 5 222 33.8 59.5 0.15 5.79 0.43 93 1003.4
20190425013913 5 215 33.8 48.3 0.15 5.79 0.43 93 1003.5
20190425013415 5 227 27.4 41.8 0.15 5.79 0.43 93 1003.6
20190425012914 5 223 37.0 46.7 0.15 5.79 0.43 94 1003.6
20190425012412 6 221 32.2 53.1 0.18 5.79 0.43 94 1003.6
20190425011914 6 223 33.8 57.9 0.15 5.79 0.41 94 1003.6
20190425011414 6 224 30.6 49.9 0.13 5.77 0.36 94 1003.6
20190425010914 6 230 35.4 49.9 0.05 5.69 0.30 94 1003.6
20190425010412 6 225 37.0 53.1 0.05 5.69 0.28 94 1003.5
20190425005914 6 231 27.4 48.3 0.08 5.69 0.28 94 1003.6
20190425005413 6 223 37.0 53.1 0.10 5.69 0.28 94 1003.4
20190425004916 6 233 33.8 48.3 0.13 5.69 0.28 94 1003.5
20190425004413 6 215 22.5 33.8 0.13 5.69 0.28 94 1003.5
20190425003913 6 244 19.3 32.2 0.13 5.69 0.28 94 1003.7
20190425003413 5 239 30.6 49.9 0.13 5.69 0.28 94 1003.6
20190425002912 5 227 20.9 32.2 0.10 5.69 0.25 94 1003.7
20190425002413 5 237 22.5 37.0 0.10 5.69 0.25 94 1003.7
20190425001913 5 227 19.3 40.2 0.08 5.66 0.23 94 1003.6
20190425001414 5 206 24.1 37.0 0.08 5.66 0.23 94 1003.8
20190425000913 6 230 20.9 33.8 0.08 5.66 0.23 94 1003.6
20190425000414 6 219 25.7 41.8 0.08 5.66 0.23 94 1003.6
20190424235913 6 239 22.5 33.8 0.13 5.61 0.20 94 1003.6
20190424235414 6 233 24.1 40.2 0.15 5.59 0.18 94 1003.0
20190424234915 6 215 19.3 35.4 0.15 5.59 0.15 94 1003.0
20190424234413 6 224 17.7 38.6 0.15 5.59 0.15 94 1003.1
20190424233912 6 210 24.1 40.2 0.15 5.59 0.15 94 1003.0
20190424233413 6 223 17.7 29.0 0.15 5.59 0.15 94 1003.2
20190424232913 6 211 19.3 33.8 0.15 5.59 0.15 94 1003.1
20190424232414 6 227 17.7 32.2 0.15 5.59 0.15 94 1003.2
20190424231912 5 241 22.5 33.8 0.15 5.59 0.15 94 1003.2
20190424231413 5 227 17.7 32.2 0.15 5.59 0.15 94 1003.3
20190424230913 5 232 19.3 29.0 0.15 5.59 0.15 94 1003.1
20190424230412 5 229 16.1 22.5 0.15 5.59 0.15 94 1003.2
20190424225913 5 227 20.9 32.2 0.13 5.54 0.13 94 1003.1
20190424225413 5 216 24.1 35.4 0.05 5.46 0.05 94 1003.1
20190424224917 5 233 14.5 19.3 0.03 5.44 0.03 94 1002.9
20190424224413 5 222 19.3 24.1 0.05 5.41 0.00 94 1002.7
20190424223913 5 221 16.1 24.1 0.13 5.41 0.00 94 1002.8
20190424223413 5 243 9.7 14.5 0.18 5.44 0.00 94 1003.0
20190424222912 5 246 8.0 19.3 0.28 5.44 0.00 94 1003.1
20190424222424 5 228 11.3 19.3 0.43 5.44 0.00 94 1003.1
20190424221915 5 217 9.7 14.5 0.43 5.44 0.00 94 1003.2
20190424221414 5 218 11.3 14.5 0.43 5.44 0.00 94 1003.2
20190424220912 5 238 9.7 14.5 0.43 5.44 0.00 94 1003.2
20190424220412 5 225 9.7 16.1 0.43 5.44 0.00 93 1003.2
20190424215914 5 232 12.9 16.1 0.43 5.44 5.41 93 1003.2
20190424215413 5 235 11.3 19.3 0.43 5.49 5.41 93 1003.1
20190424214913 5 206 11.3 24.1 0.46 5.49 5.41 93 1003.1
20190424214412 5 232 16.1 24.1 0.43 5.46 5.41 93 1003.1
20190424213914 5 220 20.9 29.0 0.51 5.44 5.36 93 1003.6
20190424213413 5 231 19.3 32.2 0.48 5.38 5.28 93 1003.3
20190424212914 5 221 30.6 41.8 0.51 5.31 5.23 93 1003.4
20190424212412 5 247 14.5 41.8 0.38 5.13 5.03 93 1003.4
20190424211913 5 330 3.2 9.7 0.43 5.08 4.98 93 1002.7
20190424211413 5 230 1.6 11.3 0.61 5.08 4.98 93 1002.5
20190424210912 5 245 1.6 8.0 0.66 5.08 4.98 93 1002.3
20190424210415 5 286 1.6 3.2 0.71 5.08 4.98 93 1002.2
20190424205912 5 286 3.2 14.5 0.74 5.08 4.98 93 1002.2
20190424205414 5 253 4.8 19.3 0.84 5.08 4.98 93 1002.2
20190424204912 5 234 14.5 22.5 0.89 5.05 4.95 93 1002.2
20190424204413 5 237 20.9 40.2 1.09 5.05 4.95 93 1002.3
20190424203912 5 242 27.4 40.2 1.04 4.98 4.88 93 1002.4
20190424203412 5 238 19.3 32.2 0.99 4.90 4.80 93 1002.3
20190424202912 5 224 19.3 33.8 1.02 4.85 4.75 93 1002.2
20190424202413 5 232 22.5 35.4 0.99 4.78 4.67 92 1002.0
20190424201912 5 217 20.9 37.0 0.97 4.75 4.62 93 1002.0
20190424201413 5 236 14.5 22.5 0.71 4.57 4.37 93 1002.0
20190424200913 5 249 14.5 24.1 0.71 4.57 4.32 93 1001.7
20190424200413 5 231 16.1 24.1 0.69 4.50 4.27 92 1001.7
20190424195912 6 222 14.5 22.5 0.71 4.47 4.24 92 1001.7
20190424195413 6 229 19.3 29.0 0.69 4.42 4.19 92 1001.8
20190424194913 6 230 19.3 25.7 0.64 4.34 4.09 92 1001.8
20190424194413 6 242 19.3 32.2 0.48 4.14 3.91 92 1001.8
20190424193916 6 231 19.3 32.2 0.46 4.09 3.86 92 1001.7
20190424193413 6 229 22.5 32.2 0.41 4.04 3.81 92 1001.7
20190424192912 6 232 16.1 25.7 0.33 3.96 3.71 92 1001.5
20190424192412 6 224 12.9 19.3 0.33 3.94 3.71 92 1001.5
20190424191912 6 227 14.5 22.5 0.28 3.91 3.66 92 1001.3
20190424191412 6 225 19.3 25.7 0.28 3.91 3.66 92 1001.3
20190424190915 6 222 20.9 32.2 0.25 3.91 3.63 92 1001.3
20190424190412 6 220 29.0 40.2 0.20 3.84 3.58 92 1001.2
20190424185914 6 212 32.2 46.7 0.15 3.81 3.53 92 1000.9
20190424185413 6 218 29.0 46.7 0.13 3.76 3.51 92 1000.7
20190424184913 7 213 29.0 45.1 0.15 3.73 3.48 92 1000.6
20190424184413 7 225 30.6 41.8 0.10 3.68 3.43 92 1000.4
20190424183916 7 226 22.5 33.8 0.13 3.73 3.43 92 1000.2
20190424183413 7 222 22.5 33.8 0.15 3.81 3.40 92 1000.1
20190424182912 7 228 16.1 22.5 0.23 3.81 3.38 92 1000.2
20190424182412 7 234 11.3 19.3 0.41 3.81 3.38 92 1000.2
20190424181915 7 243 12.9 20.9 0.53 3.81 3.38 92 1000.2
20190424181412 7 234 16.1 24.1 0.61 3.81 3.38 92 1000.3
20190424180914 7 231 22.5 32.2 0.71 3.81 3.38 92 1000.2
20190424180413 7 221 22.5 32.2 0.79 3.81 3.38 92 1000.2
20190424175913 7 232 20.9 33.8 0.86 3.81 3.38 91 1000.2
20190424175413 7 219 27.4 37.0 0.86 3.81 3.38 91 1000.3
20190424174912 7 228 24.1 35.4 0.84 3.76 3.33 91 1000.3
20190424174415 7 228 29.0 41.8 0.86 3.76 3.33 91 1000.3
20190424173912 7 223 24.1 53.1 0.81 3.71 3.30 90 1000.3
20190424173412 7 232 32.2 48.3 0.76 3.68 3.25 90 1000.2
20190424172912 7 229 40.2 57.9 0.69 3.61 3.15 90 1000.2
20190424172412 7 230 35.4 51.5 0.51 3.43 2.97 89 999.9
20190424171913 7 228 30.6 51.5 0.38 3.30 2.87 89 999.7
20190424171413 8 230 38.6 59.5 0.30 3.23 2.77 88 999.4
20190424170911 8 219 35.4 49.9 0.18 3.10 2.67 88 999.1
20190424170413 8 230 38.6 48.3 0.15 3.05 2.62 88 999.1
20190424165912 8 217 22.5 41.8 0.05 2.97 2.54 87 998.9
20190424165413 8 230 27.4 41.8 0.05 2.97 2.51 87 998.9
20190424164914 8 232 29.0 46.7 0.03 2.97 2.49 87 999.0
20190424164412 8 225 33.8 46.7 0.05 3.00 2.49 87 998.9
20190424163913 8 236 30.6 56.3 0.10 3.00 2.49 87 999.0
20190424163412 9 231 32.2 48.3 0.18 3.00 2.49 88 999.0
20190424162912 9 228 29.0 49.9 0.23 3.00 2.49 88 999.0
20190424162412 8 230 41.8 59.5 0.23 3.00 2.49 89 998.9
20190424161912 8 235 38.6 61.2 0.23 3.00 2.49 89 998.9
20190424161412 8 226 38.6 56.3 0.23 3.00 2.49 90 998.8
20190424160915 8 235 41.8 62.8 0.23 3.00 2.49 90 998.7
20190424160413 8 231 35.4 59.5 0.23 3.00 2.49 91 998.5
20190424155913 8 232 41.8 56.3 0.23 3.00 2.49 91 998.3
20190424155412 8 233 35.4 72.4 0.23 3.00 2.49 91 998.2
20190424154913 8 216 40.2 57.9 0.23 3.00 2.49 91 998.3
20190424154412 8 218 46.7 66.0 0.23 2.97 2.46 90 998.2
20190424153913 8 231 27.4 49.9 0.23 2.92 2.39 90 998.6
20190424153413 8 219 25.7 40.2 0.15 2.84 2.31 90 998.5
20190424152912 9 211 24.1 37.0 0.13 2.77 2.26 90 998.3
20190424152412 9 224 32.2 45.1 0.15 2.77 2.24 91 998.1
20190424151912 9 226 29.0 38.6 0.18 2.79 2.24 91 998.1
20190424151412 9 206 25.7 40.2 0.23 2.82 2.24 91 998.1
20190424150912 9 214 27.4 41.8 0.23 2.82 2.24 91 998.4
20190424150412 9 227 33.8 45.1 0.30 2.82 2.24 92 998.5
20190424145912 9 227 35.4 49.9 0.36 2.82 2.24 93 998.5
20190424145412 7 208 33.8 59.5 0.43 2.82 2.24 92 998.6
20190424144912 7 223 46.7 62.8 0.51 2.82 2.24 91 998.4
20190424144413 7 225 41.8 61.2 0.56 2.79 2.21 91 998.5
20190424143912 7 221 37.0 53.1 0.58 2.77 2.18 92 998.8
20190424143412 7 221 30.6 49.9 0.64 2.74 2.16 92 998.7
20190424142912 7 222 40.2 59.5 0.69 2.72 2.13 91 998.8
20190424142412 7 220 29.0 49.9 0.66 2.69 2.11 92 998.8
20190424141913 7 219 25.7 51.5 0.64 2.64 2.06 92 999.0
20190424141413 7 239 20.9 32.2 0.64 2.59 2.03 91 999.0
20190424140912 7 231 22.5 40.2 0.64 2.59 2.01 91 999.1
20190424140411 7 238 29.0 40.2 0.61 2.54 1.96 91 999.1
20190424135913 7 231 16.1 32.2 0.56 2.46 1.88 91 999.2
20190424135412 7 235 22.5 32.2 0.51 2.39 1.83 91 999.1
20190424134911 8 240 16.1 32.2 0.51 2.31 1.75 90 999.0
20190424134412 8 229 19.3 33.8 0.48 2.26 1.68 90 999.0
20190424133911 8 241 17.7 32.2 0.43 2.21 1.63 90 999.0
20190424133413 8 251 17.7 24.1 0.33 2.11 1.55 89 998.9
20190424132914 8 242 11.3 20.9 0.25 2.03 1.45 89 998.6
20190424132411 8 253 11.3 22.5 0.23 2.03 1.45 88 998.7
20190424131912 8 254 11.3 19.3 0.23 2.01 1.42 88 998.6
20190424131412 8 253 9.7 16.1 0.20 1.98 1.40 87 998.6
20190424130913 8 286 8.0 19.3 0.15 1.93 1.37 86 998.9
20190424130413 8 241 12.9 24.1 0.15 1.93 1.35 85 998.7
20190424125911 8 231 20.9 33.8 0.13 1.91 1.32 84 998.8
20190424125412 9 233 22.5 40.2 0.13 1.91 1.32 83 998.9
20190424124915 10 243 46.7 64.4 0.05 1.83 1.24 83 999.0
20190424124412 10 231 22.5 35.4 0.03 1.78 1.19 84 998.7
20190424123912 10 226 29.0 38.6 0.08 1.78 1.19 84 998.7
20190424123413 10 225 25.7 33.8 0.08 1.78 1.19 85 998.6
20190424122912 10 226 25.7 45.1 0.10 1.78 1.19 85 998.8
20190424122412 10 241 30.6 46.7 0.15 1.78 1.19 85 998.8
20190424121916 9 220 29.0 53.1 0.23 1.78 1.19 86 998.4
20190424121412 9 224 45.1 59.5 0.25 1.78 1.19 86 998.0
20190424120911 9 236 40.2 56.3 0.25 1.78 1.19 87 998.0
20190424120414 10 235 46.7 61.2 0.25 1.78 1.19 88 997.9
20190424115911 9 221 35.4 49.9 0.25 1.78 1.19 88 998.0
20190424115411 9 228 35.4 57.9 0.25 1.78 1.19 87 998.0
20190424114912 9 220 37.0 48.3 0.23 1.75 1.17 87 997.8
20190424114414 9 232 41.8 56.3 0.23 1.78 1.17 86 997.7
20190424113912 9 229 40.2 66.0 0.20 1.75 1.14 85 997.7
20190424113412 10 223 45.1 66.0 0.18 1.75 1.12 85 997.6
20190424112912 10 213 37.0 53.1 0.15 1.73 1.09 83 997.4
20190424112412 10 218 40.2 56.3 0.15 1.70 1.09 81 997.5
20190424111911 11 227 43.5 59.5 0.05 1.60 0.99 79 997.2
20190424111413 11 234 51.5 74.0 0.05 1.55 0.94 77 996.8
20190424110912 11 214 53.1 69.2 0.08 1.55 0.94 80 996.6
20190424110413 11 215 46.7 62.8 0.10 1.55 0.94 82 996.4
20190424105911 11 226 46.7 69.2 0.13 1.55 0.94 83 996.5
20190424105411 11 230 53.1 70.8 0.13 1.55 0.94 84 996.4
20190424104914 11 224 46.7 66.0 0.13 1.55 0.94 86 996.4
20190424104411 11 227 35.4 56.3 0.13 1.55 0.94 88 996.5
20190424103913 11 223 40.2 64.4 0.13 1.55 0.94 89 996.4
20190424103412 10 218 30.6 57.9 0.13 1.55 0.94 90 996.6
20190424102911 9 226 38.6 61.2 0.13 1.55 0.94 90 996.4
20190424102413 9 220 33.8 56.3 0.13 1.55 0.94 90 996.8
20190424101913 9 225 29.0 41.8 0.10 1.55 0.91 89 996.6
20190424101411 9 227 32.2 41.8 0.08 1.55 0.89 89 996.6
20190424100913 9 226 35.4 46.7 0.05 1.50 0.86 89 996.6
20190424100413 10 241 40.2 56.3 0.05 1.47 0.84 90 996.3
20190424095911 10 228 33.8 56.3 0.05 1.45 0.81 90 996.4
20190424095411 10 239 38.6 51.5 0.08 1.45 0.81 91 996.3
20190424094911 10 232 27.4 41.8 0.10 1.45 0.81 92 996.4
20190424094411 10 236 30.6 46.7 0.10 1.45 0.81 92 996.3
20190424093912 9 227 32.2 46.7 0.13 1.45 0.81 92 996.3
20190424093412 9 235 33.8 49.9 0.13 1.45 0.81 92 996.2
20190424092911 9 236 29.0 45.1 0.13 1.45 0.81 93 996.2
20190424092412 9 232 35.4 57.9 0.13 1.45 0.81 93 995.9
20190424091912 9 225 35.4 48.3 0.13 1.45 0.81 93 996.0
20190424091411 9 228 38.6 56.3 0.13 1.47 0.81 93 996.0
20190424090911 9 226 41.8 64.4 0.10 1.45 0.79 93 996.0
20190424090412 9 219 38.6 56.3 0.08 1.45 0.79 94 995.8
20190424085914 9 230 33.8 41.8 0.08 1.45 0.79 94 995.7
20190424085411 9 226 40.2 59.5 0.05 1.45 0.76 94 995.7
20190424084915 9 229 33.8 51.5 0.03 1.40 0.71 94 995.6
20190424084412 8 220 40.2 56.3 0.03 1.40 0.71 94 995.6
20190424083911 8 226 35.4 56.3 0.03 1.37 0.71 94 995.5
20190424083412 8 218 48.3 64.4 0.03 1.37 0.71 94 995.4
20190424082912 8 226 38.6 57.9 0.03 1.40 0.71 95 995.5
20190424082411 8 230 41.8 64.4 0.03 1.40 0.71 95 995.5
20190424081912 8 225 40.2 62.8 0.03 1.42 0.71 95 995.4
20190424081411 8 222 38.6 66.0 0.03 1.45 0.71 95 995.3
20190424080911 8 221 33.8 56.3 0.03 1.47 0.71 95 995.3
20190424080413 8 225 38.6 59.5 0.05 1.47 0.71 95 995.1
20190424075911 7 225 43.5 62.8 0.05 1.50 0.71 95 994.9
20190424075411 6 220 40.2 61.2 0.05 1.50 0.71 95 995.1
20190424074912 5 226 33.8 48.3 0.10 1.50 0.71 95 995.4
20190424073912 5 195 4.8 16.1 0.13 1.47 0.69 94 995.3
20190424073411 5 205 4.8 11.3 0.15 1.47 0.69 94 995.2
20190424072911 5 208 3.2 8.0 0.15 1.47 0.69 94 995.3
20190424072411 5 208 4.8 12.9 0.15 1.47 0.69 94 995.3
20190424071913 5 216 1.6 8.0 0.15 1.47 0.69 94 995.2
20190424071414 5 146 3.2 4.8 0.23 1.47 0.69 94 995.2
20190424070911 5 5 1.6 8.0 0.23 1.47 0.69 94 995.3
20190424070411 5 267 1.6 8.0 0.23 1.45 0.66 94 995.2
20190424065910 5 21 8.0 11.3 0.23 1.45 0.66 94 995.3
20190424065411 5 53 3.2 12.9 0.20 1.45 0.64 94 995.2
20190424064915 5 53 3.2 9.7 0.15 1.42 0.61 94 995.3
20190424064411 5 51 4.8 11.3 0.15 1.40 0.58 94 995.2
20190424063911 4 36 4.8 11.3 0.15 1.37 0.56 94 995.2
20190424063411 4 47 3.2 9.7 0.13 1.37 0.53 94 995.1
20190424062911 4 45 4.8 9.7 0.10 1.35 0.51 94 995.0